sensor_id;sensor_type;location;lat;lon;timestamp;pressure;altitude;pressure_sealevel;temperature;humidity
83448;BME280;73376;45.472;-73.568;2024-01-27T00:01:52;101801.31;;;-0.17;81.61
83448;BME280;73376;45.472;-73.568;2024-01-27T00:04:18;101793.72;;;-0.23;81.64
83448;BME280;73376;45.472;-73.568;2024-01-27T00:06:44;101779.41;;;-0.35;81.70
83448;BME280;73376;45.472;-73.568;2024-01-27T00:09:10;101785.53;;;-0.33;81.62
83448;BME280;73376;45.472;-73.568;2024-01-27T00:11:38;101814.25;;;-0.22;81.69
83448;BME280;73376;45.472;-73.568;2024-01-27T00:14:04;101793.69;;;-0.34;81.80
83448;BME280;73376;45.472;-73.568;2024-01-27T00:16:33;101824.63;;;-0.17;81.91
83448;BME280;73376;45.472;-73.568;2024-01-27T00:18:59;101809.34;;;-0.28;81.84
83448;BME280;73376;45.472;-73.568;2024-01-27T00:21:25;101804.72;;;-0.37;81.61
83448;BME280;73376;45.472;-73.568;2024-01-27T00:23:50;101820.81;;;-0.37;81.43
83448;BME280;73376;45.472;-73.568;2024-01-27T00:26:17;101855.88;;;-0.28;81.72
83448;BME280;73376;45.472;-73.568;2024-01-27T00:28:45;101863.94;;;-0.28;81.83
83448;BME280;73376;45.472;-73.568;2024-01-27T00:31:11;101857.22;;;-0.33;81.75
83448;BME280;73376;45.472;-73.568;2024-01-27T00:33:37;101878.50;;;-0.30;81.59
83448;BME280;73376;45.472;-73.568;2024-01-27T00:36:03;101880.66;;;-0.35;82.01
83448;BME280;73376;45.472;-73.568;2024-01-27T00:38:29;101867.41;;;-0.50;82.09
83448;BME280;73376;45.472;-73.568;2024-01-27T00:40:55;101892.03;;;-0.32;82.10
83448;BME280;73376;45.472;-73.568;2024-01-27T00:43:21;101863.53;;;-0.45;82.15
83448;BME280;73376;45.472;-73.568;2024-01-27T00:45:47;101899.75;;;-0.27;82.00
83448;BME280;73376;45.472;-73.568;2024-01-27T00:48:13;101900.25;;;-0.22;81.94
83448;BME280;73376;45.472;-73.568;2024-01-27T00:50:39;101921.38;;;-0.17;82.19
83448;BME280;73376;45.472;-73.568;2024-01-27T00:53:05;101894.84;;;-0.33;82.13
83448;BME280;73376;45.472;-73.568;2024-01-27T00:55:31;101904.25;;;-0.28;82.42
83448;BME280;73376;45.472;-73.568;2024-01-27T00:57:57;101892.00;;;-0.43;82.17
83448;BME280;73376;45.472;-73.568;2024-01-27T01:00:23;101930.03;;;-0.25;82.31
83448;BME280;73376;45.472;-73.568;2024-01-27T01:02:48;101903.31;;;-0.51;82.00
83448;BME280;73376;45.472;-73.568;2024-01-27T01:05:14;101943.38;;;-0.23;82.23
83448;BME280;73376;45.472;-73.568;2024-01-27T01:07:40;101962.66;;;-0.18;82.07
83448;BME280;73376;45.472;-73.568;2024-01-27T01:10:07;101942.09;;;-0.31;82.36
83448;BME280;73376;45.472;-73.568;2024-01-27T01:12:33;101944.28;;;-0.36;82.28
83448;BME280;73376;45.472;-73.568;2024-01-27T01:14:59;101981.25;;;-0.15;82.32
83448;BME280;73376;45.472;-73.568;2024-01-27T01:17:25;101987.47;;;-0.15;82.21
83448;BME280;73376;45.472;-73.568;2024-01-27T01:19:51;101954.50;;;-0.41;82.01
83448;BME280;73376;45.472;-73.568;2024-01-27T01:22:17;102011.91;;;-0.18;82.48
83448;BME280;73376;45.472;-73.568;2024-01-27T01:24:43;102007.72;;;-0.22;82.07
83448;BME280;73376;45.472;-73.568;2024-01-27T01:27:09;102013.72;;;-0.18;82.21
83448;BME280;73376;45.472;-73.568;2024-01-27T01:29:35;102015.78;;;-0.22;82.30
83448;BME280;73376;45.472;-73.568;2024-01-27T01:32:01;102032.59;;;-0.07;82.40
83448;BME280;73376;45.472;-73.568;2024-01-27T01:34:28;102030.88;;;-0.08;82.32
83448;BME280;73376;45.472;-73.568;2024-01-27T01:36:54;102026.38;;;-0.08;82.20
83448;BME280;73376;45.472;-73.568;2024-01-27T01:39:23;102034.31;;;-0.06;81.98
83448;BME280;73376;45.472;-73.568;2024-01-27T01:41:49;102047.16;;;-0.10;82.14
83448;BME280;73376;45.472;-73.568;2024-01-27T01:44:15;102010.38;;;-0.33;82.20
83448;BME280;73376;45.472;-73.568;2024-01-27T01:46:41;102055.84;;;-0.06;82.46
83448;BME280;73376;45.472;-73.568;2024-01-27T01:49:07;102009.25;;;-0.31;82.22
83448;BME280;73376;45.472;-73.568;2024-01-27T01:51:33;102048.00;;;-0.09;82.27
83448;BME280;73376;45.472;-73.568;2024-01-27T01:54:02;102052.22;;;-0.18;82.14
83448;BME280;73376;45.472;-73.568;2024-01-27T01:56:31;102054.81;;;-0.16;82.35
83448;BME280;73376;45.472;-73.568;2024-01-27T01:58:57;102010.69;;;-0.38;82.23
83448;BME280;73376;45.472;-73.568;2024-01-27T02:01:23;102058.41;;;-0.05;82.14
83448;BME280;73376;45.472;-73.568;2024-01-27T02:03:53;102062.78;;;-0.04;82.10
83448;BME280;73376;45.472;-73.568;2024-01-27T02:06:20;102055.22;;;-0.10;82.26
83448;BME280;73376;45.472;-73.568;2024-01-27T02:08:46;102065.38;;;-0.02;82.30
83448;BME280;73376;45.472;-73.568;2024-01-27T02:11:12;102063.53;;;-0.02;82.29
83448;BME280;73376;45.472;-73.568;2024-01-27T02:13:38;102039.31;;;-0.13;82.25
83448;BME280;73376;45.472;-73.568;2024-01-27T02:16:06;102055.44;;;-0.13;82.19
83448;BME280;73376;45.472;-73.568;2024-01-27T02:18:32;102053.25;;;-0.08;82.17
83448;BME280;73376;45.472;-73.568;2024-01-27T02:20:58;102060.84;;;-0.02;82.13
83448;BME280;73376;45.472;-73.568;2024-01-27T02:23:26;102032.78;;;-0.21;82.23
83448;BME280;73376;45.472;-73.568;2024-01-27T02:25:55;102053.25;;;-0.08;82.18
83448;BME280;73376;45.472;-73.568;2024-01-27T02:28:23;102034.25;;;-0.17;82.39
83448;BME280;73376;45.472;-73.568;2024-01-27T02:30:52;102049.06;;;-0.12;82.28
83448;BME280;73376;45.472;-73.568;2024-01-27T02:33:18;102056.28;;;-0.12;82.47
83448;BME280;73376;45.472;-73.568;2024-01-27T02:35:47;102048.56;;;-0.17;82.40
83448;BME280;73376;45.472;-73.568;2024-01-27T02:38:13;102080.31;;;0.02;82.52
83448;BME280;73376;45.472;-73.568;2024-01-27T02:40:39;102090.06;;;0.03;82.39
83448;BME280;73376;45.472;-73.568;2024-01-27T02:43:05;102083.84;;;0.03;82.28
83448;BME280;73376;45.472;-73.568;2024-01-27T02:45:34;102047.91;;;-0.20;82.20
83448;BME280;73376;45.472;-73.568;2024-01-27T02:48:02;102068.53;;;-0.08;82.24
83448;BME280;73376;45.472;-73.568;2024-01-27T02:50:28;102061.66;;;-0.12;82.48
83448;BME280;73376;45.472;-73.568;2024-01-27T02:52:54;102075.38;;;-0.04;82.05
83448;BME280;73376;45.472;-73.568;2024-01-27T02:55:20;102078.91;;;-0.04;82.23
83448;BME280;73376;45.472;-73.568;2024-01-27T02:57:46;102094.38;;;0.06;82.50
83448;BME280;73376;45.472;-73.568;2024-01-27T03:00:12;102085.19;;;-0.03;82.18
83448;BME280;73376;45.472;-73.568;2024-01-27T03:02:41;102076.22;;;-0.04;82.12
83448;BME280;73376;45.472;-73.568;2024-01-27T03:05:07;102085.81;;;0.01;82.59
83448;BME280;73376;45.472;-73.568;2024-01-27T03:07:35;102094.16;;;0.09;82.34
83448;BME280;73376;45.472;-73.568;2024-01-27T03:10:01;102089.75;;;0.08;82.42
83448;BME280;73376;45.472;-73.568;2024-01-27T03:12:27;102048.31;;;-0.14;82.52
83448;BME280;73376;45.472;-73.568;2024-01-27T03:14:53;102069.91;;;-0.03;82.36
83448;BME280;73376;45.472;-73.568;2024-01-27T03:17:20;102096.47;;;0.13;82.47
83448;BME280;73376;45.472;-73.568;2024-01-27T03:19:46;102113.50;;;0.14;82.45
83448;BME280;73376;45.472;-73.568;2024-01-27T03:22:14;102074.53;;;-0.05;82.11
83448;BME280;73376;45.472;-73.568;2024-01-27T03:24:40;102101.13;;;0.11;82.29
83448;BME280;73376;45.472;-73.568;2024-01-27T03:27:07;102101.84;;;0.13;82.23
83448;BME280;73376;45.472;-73.568;2024-01-27T03:29:35;102113.50;;;0.14;82.35
83448;BME280;73376;45.472;-73.568;2024-01-27T03:32:01;102110.81;;;0.14;82.25
83448;BME280;73376;45.472;-73.568;2024-01-27T03:34:27;102113.50;;;0.14;82.00
83448;BME280;73376;45.472;-73.568;2024-01-27T03:36:53;102071.13;;;-0.07;82.40
83448;BME280;73376;45.472;-73.568;2024-01-27T03:39:19;102082.13;;;0.02;82.19
83448;BME280;73376;45.472;-73.568;2024-01-27T03:41:45;102074.19;;;0.00;82.33
83448;BME280;73376;45.472;-73.568;2024-01-27T03:44:11;102095.41;;;0.16;82.19
83448;BME280;73376;45.472;-73.568;2024-01-27T03:46:37;102077.16;;;0.08;82.41
83448;BME280;73376;45.472;-73.568;2024-01-27T03:49:08;102068.81;;;0.00;82.21
83448;BME280;73376;45.472;-73.568;2024-01-27T03:51:36;102064.53;;;-0.03;82.19
83448;BME280;73376;45.472;-73.568;2024-01-27T03:54:05;102071.38;;;0.02;82.19
83448;BME280;73376;45.472;-73.568;2024-01-27T03:56:31;102101.63;;;0.16;82.07
83448;BME280;73376;45.472;-73.568;2024-01-27T03:58:57;102091.69;;;0.06;82.18
83448;BME280;73376;45.472;-73.568;2024-01-27T04:01:23;102121.31;;;0.17;82.33
83448;BME280;73376;45.472;-73.568;2024-01-27T04:03:50;102098.41;;;0.00;82.08
83448;BME280;73376;45.472;-73.568;2024-01-27T04:06:15;102118.63;;;0.17;82.11
83448;BME280;73376;45.472;-73.568;2024-01-27T04:08:41;102093.97;;;-0.01;82.10
83448;BME280;73376;45.472;-73.568;2024-01-27T04:11:21;102106.47;;;0.00;81.95
83448;BME280;73376;45.472;-73.568;2024-01-27T04:13:53;102122.00;;;0.08;82.07
83448;BME280;73376;45.472;-73.568;2024-01-27T04:16:21;102124.25;;;0.14;81.89
83448;BME280;73376;45.472;-73.568;2024-01-27T04:18:47;102107.81;;;0.06;82.02
83448;BME280;73376;45.472;-73.568;2024-01-27T04:21:13;102120.19;;;0.08;81.95
83448;BME280;73376;45.472;-73.568;2024-01-27T04:23:39;102115.66;;;0.09;82.10
83448;BME280;73376;45.472;-73.568;2024-01-27T04:26:07;102099.25;;;0.01;81.79
83448;BME280;73376;45.472;-73.568;2024-01-27T04:28:34;102087.75;;;-0.02;82.17
83448;BME280;73376;45.472;-73.568;2024-01-27T04:31:00;102105.66;;;0.11;82.15
83448;BME280;73376;45.472;-73.568;2024-01-27T04:33:26;102098.28;;;0.02;82.17
83448;BME280;73376;45.472;-73.568;2024-01-27T04:35:52;102111.25;;;0.08;82.24
83448;BME280;73376;45.472;-73.568;2024-01-27T04:38:18;102126.59;;;0.18;82.11
83448;BME280;73376;45.472;-73.568;2024-01-27T04:40:44;102132.06;;;0.17;82.09
83448;BME280;73376;45.472;-73.568;2024-01-27T04:43:14;102124.72;;;0.08;82.07
83448;BME280;73376;45.472;-73.568;2024-01-27T04:45:41;102102.16;;;-0.03;82.13
83448;BME280;73376;45.472;-73.568;2024-01-27T04:48:07;102115.88;;;0.06;82.28
83448;BME280;73376;45.472;-73.568;2024-01-27T04:50:38;102120.41;;;0.05;81.93
83448;BME280;73376;45.472;-73.568;2024-01-27T04:53:07;102102.47;;;-0.07;81.86
83448;BME280;73376;45.472;-73.568;2024-01-27T04:55:33;102122.47;;;0.02;81.89
83448;BME280;73376;45.472;-73.568;2024-01-27T04:57:59;102090.81;;;-0.19;81.92
83448;BME280;73376;45.472;-73.568;2024-01-27T05:00:26;102106.28;;;-0.10;82.08
83448;BME280;73376;45.472;-73.568;2024-01-27T05:02:55;102096.59;;;-0.12;81.93
83448;BME280;73376;45.472;-73.568;2024-01-27T05:05:21;102078.59;;;-0.23;82.05
83448;BME280;73376;45.472;-73.568;2024-01-27T05:07:47;102103.69;;;-0.11;82.08
83448;BME280;73376;45.472;-73.568;2024-01-27T05:10:15;102083.56;;;-0.30;81.96
83448;BME280;73376;45.472;-73.568;2024-01-27T05:12:41;102113.41;;;-0.21;82.17
83448;BME280;73376;45.472;-73.568;2024-01-27T05:15:08;102094.13;;;-0.39;81.99
83448;BME280;73376;45.472;-73.568;2024-01-27T05:17:36;102088.44;;;-0.47;82.20
83448;BME280;73376;45.472;-73.568;2024-01-27T05:20:02;102097.03;;;-0.42;81.77
83448;BME280;73376;45.472;-73.568;2024-01-27T05:22:30;102097.78;;;-0.40;82.26
83448;BME280;73376;45.472;-73.568;2024-01-27T05:24:57;102062.41;;;-0.71;81.96
83448;BME280;73376;45.472;-73.568;2024-01-27T05:27:23;102101.13;;;-0.50;82.19
83448;BME280;73376;45.472;-73.568;2024-01-27T05:29:49;102108.41;;;-0.52;82.22
83448;BME280;73376;45.472;-73.568;2024-01-27T05:32:15;102099.63;;;-0.54;82.42
83448;BME280;73376;45.472;-73.568;2024-01-27T05:34:41;102086.44;;;-0.69;82.18
83448;BME280;73376;45.472;-73.568;2024-01-27T05:37:08;102086.56;;;-0.71;82.20
83448;BME280;73376;45.472;-73.568;2024-01-27T05:39:34;102064.34;;;-0.86;82.35
83448;BME280;73376;45.472;-73.568;2024-01-27T05:42:02;102098.66;;;-0.65;82.29
83448;BME280;73376;45.472;-73.568;2024-01-27T05:44:28;102092.78;;;-0.70;82.26
83448;BME280;73376;45.472;-73.568;2024-01-27T05:46:54;102076.03;;;-0.87;82.20
83448;BME280;73376;45.472;-73.568;2024-01-27T05:49:20;102088.19;;;-0.81;82.49
83448;BME280;73376;45.472;-73.568;2024-01-27T05:51:46;102086.78;;;-0.87;82.12
83448;BME280;73376;45.472;-73.568;2024-01-27T05:54:12;102080.78;;;-0.90;82.35
83448;BME280;73376;45.472;-73.568;2024-01-27T05:56:42;102078.66;;;-0.98;82.38
83448;BME280;73376;45.472;-73.568;2024-01-27T05:59:08;102058.88;;;-1.10;82.55
83448;BME280;73376;45.472;-73.568;2024-01-27T06:01:37;102040.09;;;-1.23;82.46
83448;BME280;73376;45.472;-73.568;2024-01-27T06:04:03;102035.81;;;-1.25;82.40
83448;BME280;73376;45.472;-73.568;2024-01-27T06:06:29;102076.59;;;-1.07;82.51
83448;BME280;73376;45.472;-73.568;2024-01-27T06:08:54;102042.13;;;-1.26;82.78
83448;BME280;73376;45.472;-73.568;2024-01-27T06:11:24;101996.44;;;-1.50;82.80
83448;BME280;73376;45.472;-73.568;2024-01-27T06:13:50;102073.06;;;-1.08;82.71
83448;BME280;73376;45.472;-73.568;2024-01-27T06:16:19;102079.81;;;-1.02;82.64
83448;BME280;73376;45.472;-73.568;2024-01-27T06:18:47;102074.88;;;-1.08;82.72
83448;BME280;73376;45.472;-73.568;2024-01-27T06:21:13;102081.00;;;-1.06;82.94
83448;BME280;73376;45.472;-73.568;2024-01-27T06:23:39;102082.41;;;-1.01;82.96
83448;BME280;73376;45.472;-73.568;2024-01-27T06:26:08;102087.56;;;-0.98;82.86
83448;BME280;73376;45.472;-73.568;2024-01-27T06:28:40;102082.06;;;-0.96;83.20
83448;BME280;73376;45.472;-73.568;2024-01-27T06:31:06;102074.13;;;-0.98;82.88
83448;BME280;73376;45.472;-73.568;2024-01-27T06:33:34;102068.00;;;-1.00;82.72
83448;BME280;73376;45.472;-73.568;2024-01-27T06:36:00;102074.13;;;-0.98;82.67
83448;BME280;73376;45.472;-73.568;2024-01-27T06:38:29;102075.06;;;-0.99;82.68
83448;BME280;73376;45.472;-73.568;2024-01-27T06:41:00;102047.72;;;-1.16;83.01
83448;BME280;73376;45.472;-73.568;2024-01-27T06:43:26;102088.19;;;-0.94;82.75
83448;BME280;73376;45.472;-73.568;2024-01-27T06:45:52;102090.31;;;-0.86;82.75
83448;BME280;73376;45.472;-73.568;2024-01-27T06:48:18;102097.31;;;-0.84;82.75
83448;BME280;73376;45.472;-73.568;2024-01-27T06:50:46;102109.41;;;-0.78;82.65
83448;BME280;73376;45.472;-73.568;2024-01-27T06:53:12;102071.03;;;-1.04;82.83
83448;BME280;73376;45.472;-73.568;2024-01-27T06:55:38;102113.00;;;-0.78;83.00
83448;BME280;73376;45.472;-73.568;2024-01-27T06:58:04;102082.69;;;-0.92;82.85
83448;BME280;73376;45.472;-73.568;2024-01-27T07:00:33;102115.13;;;-0.70;82.64
83448;BME280;73376;45.472;-73.568;2024-01-27T07:02:58;102099.56;;;-0.78;82.78
83448;BME280;73376;45.472;-73.568;2024-01-27T07:05:27;102073.56;;;-0.90;82.63
83448;BME280;73376;45.472;-73.568;2024-01-27T07:07:53;102092.03;;;-0.73;82.78
83448;BME280;73376;45.472;-73.568;2024-01-27T07:10:19;102104.59;;;-0.73;83.02
83448;BME280;73376;45.472;-73.568;2024-01-27T07:12:45;102091.28;;;-0.75;82.67
83448;BME280;73376;45.472;-73.568;2024-01-27T07:15:14;102065.19;;;-0.85;82.82
83448;BME280;73376;45.472;-73.568;2024-01-27T07:17:40;102065.81;;;-0.82;82.88
83448;BME280;73376;45.472;-73.568;2024-01-27T07:20:07;102050.50;;;-0.92;82.40
83448;BME280;73376;45.472;-73.568;2024-01-27T07:22:33;102105.53;;;-0.61;82.91
83448;BME280;73376;45.472;-73.568;2024-01-27T07:25:02;102068.94;;;-0.75;82.83
83448;BME280;73376;45.472;-73.568;2024-01-27T07:27:28;102077.75;;;-0.73;82.99
83448;BME280;73376;45.472;-73.568;2024-01-27T07:29:54;102083.53;;;-0.66;82.87
83448;BME280;73376;45.472;-73.568;2024-01-27T07:32:20;102101.56;;;-0.56;82.52
83448;BME280;73376;45.472;-73.568;2024-01-27T07:34:47;102092.22;;;-0.63;82.83
83448;BME280;73376;45.472;-73.568;2024-01-27T07:37:13;102066.72;;;-0.81;82.56
83448;BME280;73376;45.472;-73.568;2024-01-27T07:39:40;102123.38;;;-0.47;82.51
83448;BME280;73376;45.472;-73.568;2024-01-27T07:42:09;102110.59;;;-0.57;82.57
83448;BME280;73376;45.472;-73.568;2024-01-27T07:44:35;102122.28;;;-0.45;82.33
83448;BME280;73376;45.472;-73.568;2024-01-27T07:47:01;102118.22;;;-0.51;82.72
83448;BME280;73376;45.472;-73.568;2024-01-27T07:49:27;102114.00;;;-0.55;82.35
83448;BME280;73376;45.472;-73.568;2024-01-27T07:51:54;102122.06;;;-0.42;82.53
83448;BME280;73376;45.472;-73.568;2024-01-27T07:54:20;102110.03;;;-0.49;82.21
83448;BME280;73376;45.472;-73.568;2024-01-27T07:56:46;102121.97;;;-0.40;82.50
83448;BME280;73376;45.472;-73.568;2024-01-27T07:59:12;102123.75;;;-0.41;82.11
83448;BME280;73376;45.472;-73.568;2024-01-27T08:01:41;102088.97;;;-0.55;82.16
83448;BME280;73376;45.472;-73.568;2024-01-27T08:04:07;102115.94;;;-0.44;82.06
83448;BME280;73376;45.472;-73.568;2024-01-27T08:06:34;102115.19;;;-0.46;82.08
83448;BME280;73376;45.472;-73.568;2024-01-27T08:09:00;102111.09;;;-0.52;82.15
83448;BME280;73376;45.472;-73.568;2024-01-27T08:11:25;102099.31;;;-0.62;82.19
83448;BME280;73376;45.472;-73.568;2024-01-27T08:13:51;102088.38;;;-0.72;82.00
83448;BME280;73376;45.472;-73.568;2024-01-27T08:16:18;102120.56;;;-0.59;82.07
83448;BME280;73376;45.472;-73.568;2024-01-27T08:18:44;102111.25;;;-0.66;82.22
83448;BME280;73376;45.472;-73.568;2024-01-27T08:21:11;102094.84;;;-0.74;81.99
83448;BME280;73376;45.472;-73.568;2024-01-27T08:23:40;102096.53;;;-0.73;81.97
83448;BME280;73376;45.472;-73.568;2024-01-27T08:26:06;102106.84;;;-0.67;82.12
83448;BME280;73376;45.472;-73.568;2024-01-27T08:28:32;102087.63;;;-0.74;82.03
83448;BME280;73376;45.472;-73.568;2024-01-27T08:30:58;102096.31;;;-0.70;82.07
83448;BME280;73376;45.472;-73.568;2024-01-27T08:33:25;102096.53;;;-0.73;82.13
83448;BME280;73376;45.472;-73.568;2024-01-27T08:35:51;102065.41;;;-0.88;82.11
83448;BME280;73376;45.472;-73.568;2024-01-27T08:38:17;102096.00;;;-0.78;82.01
83448;BME280;73376;45.472;-73.568;2024-01-27T08:40:43;102063.38;;;-0.98;81.90
83448;BME280;73376;45.472;-73.568;2024-01-27T08:43:09;102072.81;;;-0.92;81.91
83448;BME280;73376;45.472;-73.568;2024-01-27T08:45:38;102097.19;;;-0.82;81.83
83448;BME280;73376;45.472;-73.568;2024-01-27T08:48:06;102078.44;;;-0.95;81.94
83448;BME280;73376;45.472;-73.568;2024-01-27T08:50:33;102094.06;;;-0.89;81.81
83448;BME280;73376;45.472;-73.568;2024-01-27T08:53:02;102074.34;;;-1.01;81.72
83448;BME280;73376;45.472;-73.568;2024-01-27T08:55:28;102082.41;;;-1.01;81.92
83448;BME280;73376;45.472;-73.568;2024-01-27T08:57:56;102085.94;;;-1.00;81.96
83448;BME280;73376;45.472;-73.568;2024-01-27T09:00:24;102031.84;;;-1.45;81.90
83448;BME280;73376;45.472;-73.568;2024-01-27T09:02:51;102062.00;;;-1.29;81.90
83448;BME280;73376;45.472;-73.568;2024-01-27T09:05:17;102093.56;;;-1.07;81.75
83448;BME280;73376;45.472;-73.568;2024-01-27T09:07:43;102090.44;;;-1.13;81.81
83448;BME280;73376;45.472;-73.568;2024-01-27T09:10:09;102081.97;;;-1.20;82.03
83448;BME280;73376;45.472;-73.568;2024-01-27T09:12:38;102068.88;;;-1.25;81.96
83448;BME280;73376;45.472;-73.568;2024-01-27T09:15:06;102064.13;;;-1.34;81.75
83448;BME280;73376;45.472;-73.568;2024-01-27T09:17:33;102090.44;;;-1.13;81.51
83448;BME280;73376;45.472;-73.568;2024-01-27T09:19:59;102104.94;;;-1.03;81.93
83448;BME280;73376;45.472;-73.568;2024-01-27T09:22:27;102106.75;;;-1.04;81.71
83448;BME280;73376;45.472;-73.568;2024-01-27T09:24:53;102113.97;;;-1.04;81.92
83448;BME280;73376;45.472;-73.568;2024-01-27T09:27:20;102080.66;;;-1.27;81.58
83448;BME280;73376;45.472;-73.568;2024-01-27T09:29:46;102117.06;;;-1.10;81.78
83448;BME280;73376;45.472;-73.568;2024-01-27T09:32:12;102102.91;;;-1.25;81.90
83448;BME280;73376;45.472;-73.568;2024-01-27T09:34:38;102120.16;;;-1.16;81.61
83448;BME280;73376;45.472;-73.568;2024-01-27T09:37:06;102107.72;;;-1.30;81.64
83448;BME280;73376;45.472;-73.568;2024-01-27T09:39:35;102139.94;;;-1.17;81.73
83448;BME280;73376;45.472;-73.568;2024-01-27T09:42:07;102141.00;;;-1.20;81.92
83448;BME280;73376;45.472;-73.568;2024-01-27T09:44:35;102138.44;;;-1.22;81.69
83448;BME280;73376;45.472;-73.568;2024-01-27T09:47:02;102147.41;;;-1.23;81.97
83448;BME280;73376;45.472;-73.568;2024-01-27T09:49:28;102147.53;;;-1.24;81.62
83448;BME280;73376;45.472;-73.568;2024-01-27T09:51:55;102145.81;;;-1.25;81.61
83448;BME280;73376;45.472;-73.568;2024-01-27T09:54:22;102132.47;;;-1.39;81.84
83448;BME280;73376;45.472;-73.568;2024-01-27T09:56:50;102129.78;;;-1.39;81.48
83448;BME280;73376;45.472;-73.568;2024-01-27T09:59:16;102162.66;;;-1.23;81.82
83448;BME280;73376;45.472;-73.568;2024-01-27T10:01:44;102145.19;;;-1.29;81.40
83448;BME280;73376;45.472;-73.568;2024-01-27T10:04:11;102120.34;;;-1.45;81.74
83448;BME280;73376;45.472;-73.568;2024-01-27T10:06:37;102159.31;;;-1.27;81.57
83448;BME280;73376;45.472;-73.568;2024-01-27T10:09:04;102142.59;;;-1.30;81.79
83448;BME280;73376;45.472;-73.568;2024-01-27T10:11:32;102133.78;;;-1.32;81.51
83448;BME280;73376;45.472;-73.568;2024-01-27T10:14:00;102154.09;;;-1.28;81.43
83448;BME280;73376;45.472;-73.568;2024-01-27T10:16:39;102103.38;;;-1.58;81.52
83448;BME280;73376;45.472;-73.568;2024-01-27T10:19:05;102168.88;;;-1.23;81.63
83448;BME280;73376;45.472;-73.568;2024-01-27T10:21:31;102167.09;;;-1.22;81.53
83448;BME280;73376;45.472;-73.568;2024-01-27T10:24:00;102133.25;;;-1.37;81.50
83448;BME280;73376;45.472;-73.568;2024-01-27T10:26:30;102177.38;;;-1.16;81.90
83448;BME280;73376;45.472;-73.568;2024-01-27T10:28:57;102173.84;;;-1.16;81.48
83448;BME280;73376;45.472;-73.568;2024-01-27T10:31:30;102161.41;;;-1.17;81.39
83448;BME280;73376;45.472;-73.568;2024-01-27T10:33:57;102159.03;;;-1.22;81.37
83448;BME280;73376;45.472;-73.568;2024-01-27T10:36:24;102131.41;;;-1.37;81.23
83448;BME280;73376;45.472;-73.568;2024-01-27T10:38:51;102093.72;;;-1.61;81.17
83448;BME280;73376;45.472;-73.568;2024-01-27T10:41:24;102153.31;;;-1.30;81.10
83448;BME280;73376;45.472;-73.568;2024-01-27T10:43:56;102161.34;;;-1.30;80.91
83448;BME280;73376;45.472;-73.568;2024-01-27T10:46:24;102182.94;;;-1.19;80.95
83448;BME280;73376;45.472;-73.568;2024-01-27T10:48:52;102183.91;;;-1.20;80.99
83448;BME280;73376;45.472;-73.568;2024-01-27T10:51:30;102167.06;;;-1.35;81.24
83448;BME280;73376;45.472;-73.568;2024-01-27T10:54:02;102198.31;;;-1.21;80.60
83448;BME280;73376;45.472;-73.568;2024-01-27T10:56:32;102193.78;;;-1.21;81.22
83448;BME280;73376;45.472;-73.568;2024-01-27T10:58:59;102196.59;;;-1.22;80.96
83448;BME280;73376;45.472;-73.568;2024-01-27T11:01:26;102207.22;;;-1.21;81.08
83448;BME280;73376;45.472;-73.568;2024-01-27T11:03:57;102221.50;;;-1.20;80.96
83448;BME280;73376;45.472;-73.568;2024-01-27T11:06:27;102203.88;;;-1.24;81.00
83448;BME280;73376;45.472;-73.568;2024-01-27T11:08:56;102207.75;;;-1.28;80.88
83448;BME280;73376;45.472;-73.568;2024-01-27T11:11:22;102223.19;;;-1.19;80.93
83448;BME280;73376;45.472;-73.568;2024-01-27T11:13:51;102202.47;;;-1.30;80.89
83448;BME280;73376;45.472;-73.568;2024-01-27T11:16:18;102219.66;;;-1.20;80.96
83448;BME280;73376;45.472;-73.568;2024-01-27T11:18:45;102206.22;;;-1.32;81.00
83448;BME280;73376;45.472;-73.568;2024-01-27T11:21:15;102225.22;;;-1.23;80.75
83448;BME280;73376;45.472;-73.568;2024-01-27T11:23:42;102230.38;;;-1.20;80.98
83448;BME280;73376;45.472;-73.568;2024-01-27T11:26:09;102219.88;;;-1.23;80.80
83448;BME280;73376;45.472;-73.568;2024-01-27T11:28:36;102238.69;;;-1.10;80.93
83448;BME280;73376;45.472;-73.568;2024-01-27T11:31:07;102193.03;;;-1.35;80.71
83448;BME280;73376;45.472;-73.568;2024-01-27T11:33:33;102241.94;;;-1.05;80.62
83448;BME280;73376;45.472;-73.568;2024-01-27T11:36:03;102243.75;;;-1.05;80.80
83448;BME280;73376;45.472;-73.568;2024-01-27T11:38:31;102229.78;;;-1.10;80.92
83448;BME280;73376;45.472;-73.568;2024-01-27T11:40:59;102246.22;;;-1.02;80.91
83448;BME280;73376;45.472;-73.568;2024-01-27T11:43:27;102251.59;;;-1.02;80.87
83448;BME280;73376;45.472;-73.568;2024-01-27T11:46:01;102249.66;;;-1.00;80.76
83448;BME280;73376;45.472;-73.568;2024-01-27T11:48:27;102230.09;;;-1.15;80.58
83448;BME280;73376;45.472;-73.568;2024-01-27T11:51:10;102221.28;;;-1.17;80.74
83448;BME280;73376;45.472;-73.568;2024-01-27T11:53:40;102232.47;;;-1.10;80.70
83448;BME280;73376;45.472;-73.568;2024-01-27T11:56:06;102254.19;;;-1.01;80.72
83448;BME280;73376;45.472;-73.568;2024-01-27T11:58:33;102250.94;;;-1.06;80.60
83448;BME280;73376;45.472;-73.568;2024-01-27T12:00:59;102248.91;;;-1.02;80.67
83448;BME280;73376;45.472;-73.568;2024-01-27T12:03:26;102226.66;;;-1.17;80.62
83448;BME280;73376;45.472;-73.568;2024-01-27T12:05:53;102259.53;;;-1.01;80.52
83448;BME280;73376;45.472;-73.568;2024-01-27T12:08:19;102262.44;;;-1.04;80.43
83448;BME280;73376;45.472;-73.568;2024-01-27T12:10:45;102266.63;;;-1.00;80.62
83448;BME280;73376;45.472;-73.568;2024-01-27T12:13:11;102254.78;;;-1.10;80.53
83448;BME280;73376;45.472;-73.568;2024-01-27T12:15:37;102273.06;;;-1.02;80.46
83448;BME280;73376;45.472;-73.568;2024-01-27T12:18:05;102247.06;;;-1.14;80.31
83448;BME280;73376;45.472;-73.568;2024-01-27T12:20:32;102276.50;;;-1.00;80.27
83448;BME280;73376;45.472;-73.568;2024-01-27T12:23:04;102260.81;;;-1.06;80.22
83448;BME280;73376;45.472;-73.568;2024-01-27T12:25:30;102264.66;;;-1.10;79.63
83448;BME280;73376;45.472;-73.568;2024-01-27T12:27:58;102250.59;;;-1.14;80.14
83448;BME280;73376;45.472;-73.568;2024-01-27T12:30:31;102277.47;;;-1.01;80.05